Observations for Trim Market St
| Time | AQI | Temp °C | Hum % | Pres Pa | CO μg/m³ | H₂S μg/m³ | NO μg/m³ | NO₂ μg/m³ | O₃ μg/m³ | SO₂ μg/m³ | PM1 μg/m³ | PM2.5 μg/m³ | PM10 μg/m³ |
|---|---|---|---|---|---|---|---|---|---|---|---|---|---|
| Thursday 27 August 2026 | |||||||||||||
| 05:26 | 2 | 17.4 | 85 | 2,147,483,647 | 0.33 | 0 | 2.2 | 2.73 | 58.47 | 0 | 15.68 | 18.14 | 28.48 |
| 05:25 | 2 | 17.4 | 85 | 2,147,483,647 | 0.35 | 0 | 2.18 | 3.68 | 51.11 | 0 | 16.39 | 18.6 | 27.94 |
| 05:24 | 2 | 17.4 | 85 | 2,147,483,647 | 0.33 | 0 | 2.17 | 2.25 | 54.47 | 0 | 16.39 | 17.67 | 26.87 |
| 05:22 | 2 | 17.4 | 85 | 2,147,483,647 | 0.33 | 0 | 2.19 | 2.47 | 55.19 | 0 | 14.96 | 17.21 | 26.33 |
| 05:21 | 2 | 17.4 | 85 | 2,147,483,647 | 0.33 | 0 | 2.19 | 3.01 | 56.66 | 0 | 16.39 | 19.52 | 29.53 |
| 05:19 | 2 | 17.3 | 85 | 2,147,483,647 | 0.35 | 0 | 2.18 | 4.04 | 59.21 | 0 | 15.68 | 17.66 | 26.85 |
| 05:18 | 2 | 17.3 | 85 | 2,147,483,647 | 0.33 | 0 | 2.21 | 5.76 | 59.26 | 0 | 16.39 | 17.66 | 28.99 |
| 05:17 | 2 | 17.3 | 85 | 2,147,483,647 | 0.34 | 0 | 2.21 | 3.27 | 56.83 | 0 | 15.68 | 18.13 | 27.92 |
| 05:16 | 2 | 17.3 | 85 | 2,147,483,647 | 0.34 | 0 | 2.23 | 3.27 | 53.59 | 0 | 15.68 | 17.66 | 26.31 |
| 05:14 | 2 | 17.3 | 85 | 2,147,483,647 | 0.33 | 0 | 2.21 | 3.01 | 57.41 | 0 | 16.39 | 17.66 | 26.85 |
| 05:09 | 2 | 17.2 | 85 | 2,147,483,647 | 0.34 | 0 | 2.21 | 3.52 | 57.4 | 0 | 15.68 | 17.2 | 26.85 |
| 05:08 | 2 | 17.2 | 85 | 2,147,483,647 | 0.36 | 0 | 2.24 | 3.6 | 56.2 | 0 | 16.39 | 18.13 | 28.99 |
| 05:03 | 2 | 17.1 | 85 | 2,147,483,647 | 0.35 | 0 | 2.24 | 3.15 | 54.83 | 0 | 14.96 | 16.28 | 25.26 |
| 05:01 | 2 | 17.1 | 85 | 2,147,483,647 | 0.33 | 0 | 2.23 | 4.65 | 54.41 | 0 | 16.39 | 17.67 | 27.94 |
| 04:56 | 2 | 17.1 | 85 | 2,147,483,647 | 0.33 | 0 | 2.18 | 4.11 | 58.04 | 0 | 14.96 | 16.28 | 23.64 |
| 04:55 | 2 | 17.1 | 85 | 2,147,483,647 | 0.33 | 0 | 2.17 | 3.42 | 56.5 | 0 | 16.39 | 18.14 | 27.94 |
| 04:54 | 2 | 17.1 | 85 | 2,147,483,647 | 0.32 | 0 | 2.15 | 3.15 | 52.82 | 0 | 14.96 | 16.74 | 26.33 |
| 04:53 | 2 | 17.1 | 85 | 2,147,483,647 | 0.33 | 0 | 2.17 | 3.23 | 53.96 | 0 | 16.39 | 16.74 | 26.33 |
| 04:52 | 2 | 17.1 | 85 | 2,147,483,647 | 0.32 | 0 | 2.15 | 3.32 | 58.37 | 0 | 13.54 | 15.35 | 24.18 |
| 04:51 | 2 | 17.1 | 85 | 2,147,483,647 | 0.33 | 0 | 2.16 | 2.93 | 52.54 | 0 | 15.68 | 17.21 | 26.87 |